TFM - Tactical Decision Aid
ID: Runway Winds: CIG/VIS Threshold:

KGSP - Greenville-Spartansb, SC, US

Updated at: 0747 UTC 30 Oct 2020
Latest TAF at: 0537 UTC 30 Oct 2020

TAF Board

Time<<30/20Z 30/21Z 30/22Z 30/23Z 31/00Z 31/01Z 31/02Z 31/03Z 31/04Z 31/05Z 31/06Z 31/07Z 31/08Z>>
Type PRVL PRVL PRVL PRVL PRVL PRVL PRVL PRVL PRVL PRVL
VIS >6 >6 >6 >6 >6 >6 >6 >6 >6 >6
CIG -- -- -- -- -- -- -- -- -- --
Cover SKC SKC SKC SKC SKC SKC SKC SKC SKC SKC
FltCat VFR VFR VFR VFR VFR VFR VFR VFR VFR VFR
WX -- -- -- -- -- -- -- -- -- --
WDir 320 320 360 360 360 360 360 360 360 360
WSpd 10 10 9 9 9 9 9 9 9 9
WGst 23 23 -- -- -- -- -- -- -- --

TDA Impact Legend

  None Marginal Slight Moderate High
Visibility (sm) >5 3≤X≤5 2≤X<3 0.5≤X<2 <0.5
Ceiling (100 ft) >30 10≤X≤30 6≤X<10 2≤X<6 <2
Wind Speed (kt) <15 15≤X<25 25≤X<30 ≥30
Wind Gust (kt) <15 15≤X<25 25≤X<35 ≥35
Weather No Wx Reported VCTS -TS,-FZRA TS,FZRA +TS,+FZRA
TAF
KGSP 300537Z 3006/3106 28010G21KT P6SM SCT090
  FM300900 27007KT P6SM FEW090
  FM301300 32010G23KT P6SM SKC
  FM302200 36009KT P6SM SKC


Radar Display
Forecast Discussion